首页
METAR-TAF:

METAR-TAF

机场 :

羅馬-菲烏米奇諾機場

罗马菲乌米奇诺, 意大利

纬度: 41-48N, 经度: 012-14E, 海拔: 2米

当前天气观测

该预报发布于20分钟前的04:50 UTC
风速5节,风向东转东北
温度 11°C
湿度 87%
气压 1008 hPa
能见度10公里或以上
多云层高于5000英尺

METAR: LIRF 290450Z 06005KT 9999 BKN050 11/09 Q1008 NOSIG

时间: 06:10 (05:10 UTC)

预报

该预报发布于6小时和10分钟前的23:00 UTC
预报有效从29日的 00点(UTC)到 30日的 06点(UTC)
风速10节,风向
能见度10公里或以上
散云层高于2000英尺
短暂存在
从 29日的 00点(UTC)到 29日的 06点(UTC)
能見度: 4000
雷暴, 雨
成为
从 29日的 04点(UTC)到 29日的 06点(UTC)
风速10节,风向东北
成为
从 29日的 09点(UTC)到 29日的 11点(UTC)
风速10节,风向北转西北
成为
从 29日的 18点(UTC)到 29日的 20点(UTC)
风速8节,风向北转东北

TAF: LIRF 282300Z 2900/3006 10010KT 9999 SCT020 TEMPO 2900/2906 4000 TSRA BECMG 2904/2906 04010KT BECMG 2909/2911 34010KT BECMG 2918/2920 02008KT

超过4000个机场的气象观测和天气预报(METAR&TAF报告)。

可查询的气象台以黄色和红色小点在地图上表示。

将鼠标移到小点上方,可查看气象台名称。

然后点击查看天气观测和预报。

如需切换地图:点击带黑十字的绿色按钮放大地图;点击带横线的绿色按钮缩小地图;或者点击绿色箭头查看邻近地区的地图。


METAR-TAF: